Time;durP1;ratioP1;P1;durP2;ratioP2;P2;SDS_P1;SDS_P2;PMS_P1;PMS_P2;Temp;Humidity;BMP_temperature;BMP_pressure;BME280_temperature;BME280_humidity;BME280_pressure;Samples;Min_cycle;Max_cycle;Signal;HPM_P1;HPM_P2
2023/03/07 00:01:32;;;;;;;;;25.75;22.50;;;;;7.99;53.54;100156.06;5069314;28;45826;-67
2023/03/07 00:04:00;;;;;;;;;22.50;20.25;;;;;7.86;53.33;100125.63;5074105;28;47546;-67
2023/03/07 00:06:27;;;;;;;;;25.75;18.25;;;;;8.08;53.21;100158.69;5042152;27;45607;-65
2023/03/07 00:08:55;;;;;;;;;23.75;20.25;;;;;8.07;53.17;100156.97;5074243;28;45707;-67
2023/03/07 00:11:21;;;;;;;;;23.75;22.25;;;;;8.05;53.11;100158.69;5071526;28;45604;-67
2023/03/07 00:13:47;;;;;;;;;28.75;24.00;;;;;8.06;52.97;100154.34;5061616;28;47027;-67
2023/03/07 00:16:16;;;;;;;;;27.75;21.00;;;;;8.07;53.04;100156.97;5079343;28;45326;-68
2023/03/07 00:18:42;;;;;;;;;24.00;23.25;;;;;8.07;53.54;100161.31;5081055;27;45343;-71
2023/03/07 00:21:15;;;;;;;;;31.25;24.50;;;;;8.00;53.65;100150.00;5076640;27;45536;-68
2023/03/07 00:23:43;;;;;;;;;25.75;21.50;;;;;8.02;53.63;100150.88;5078071;28;45623;-67
2023/03/07 00:26:15;;;;;;;;;24.50;22.25;;;;;8.01;53.33;100154.34;5077890;27;45437;-68
2023/03/07 00:28:41;;;;;;;;;22.25;19.00;;;;;8.02;53.30;100152.59;5056771;28;45347;-67
2023/03/07 00:31:09;;;;;;;;;30.75;26.25;;;;;7.91;53.41;100139.53;5057834;27;45552;-68
2023/03/07 00:33:36;;;;;;;;;32.00;20.75;;;;;7.98;53.37;100150.84;5063112;28;45761;-65
2023/03/07 00:36:06;;;;;;;;;23.50;20.00;;;;;7.95;53.25;100143.91;5065636;27;45533;-66
2023/03/07 00:38:33;;;;;;;;;27.75;21.25;;;;;7.90;53.43;100136.91;5077049;28;45436;-67
2023/03/07 00:41:06;;;;;;;;;27.00;21.50;;;;;7.98;53.66;100150.84;5076718;27;45409;-64
2023/03/07 00:43:33;;;;;;;;;26.00;22.00;;;;;7.89;53.15;100124.75;5075642;27;46047;-66
2023/03/07 00:45:59;;;;;;;;;27.25;22.00;;;;;8.01;53.43;100140.44;5079674;28;45488;-66
2023/03/07 00:48:25;;;;;;;;;29.75;25.25;;;;;8.01;53.59;100137.81;5061390;28;45338;-66
2023/03/07 00:50:51;;;;;;;;;25.00;22.25;;;;;7.99;53.39;100129.97;5076289;28;45460;-66
2023/03/07 00:53:17;;;;;;;;;28.00;21.50;;;;;8.01;52.93;100124.78;5074375;28;46282;-65
2023/03/07 00:55:57;;;;;;;;;23.50;22.75;;;;;7.92;53.07;100098.66;5068089;28;45557;-67
2023/03/07 00:58:22;;;;;;;;;25.50;21.50;;;;;8.05;52.92;100119.56;5079986;27;45660;-66
2023/03/07 01:00:48;;;;;;;;;25.75;22.00;;;;;8.06;52.99;100123.91;5066541;28;45338;-68
2023/03/07 01:03:15;;;;;;;;;28.50;22.25;;;;;7.99;52.79;100109.13;5073727;27;45961;-65
2023/03/07 01:05:41;;;;;;;;;27.00;20.50;;;;;7.94;52.90;100095.19;5062123;28;45495;-66
2023/03/07 01:08:06;;;;;;;;;32.25;25.75;;;;;7.97;52.83;100105.66;5068205;28;45430;-66
2023/03/07 01:10:32;;;;;;;;;20.50;19.25;;;;;7.96;52.81;100110.88;5078938;28;45477;-66
2023/03/07 01:12:59;;;;;;;;;22.00;18.75;;;;;7.93;52.86;100096.09;5079563;28;46657;-66
2023/03/07 01:15:25;;;;;;;;;29.00;23.25;;;;;7.90;53.24;100085.66;5076013;28;45481;-66
2023/03/07 01:17:50;;;;;;;;;27.00;23.00;;;;;7.92;52.83;100094.31;5062611;28;45471;-65
2023/03/07 01:20:16;;;;;;;;;26.00;17.50;;;;;7.77;53.47;100089.94;5058964;28;45484;-66
2023/03/07 01:22:42;;;;;;;;;25.50;22.25;;;;;7.78;53.00;100091.72;5068858;28;46136;-66
2023/03/07 01:25:08;;;;;;;;;24.75;21.00;;;;;7.80;53.35;100083.88;5079226;28;45496;-66
2023/03/07 01:27:33;;;;;;;;;27.75;25.75;;;;;7.80;53.26;100081.25;5075880;27;45323;-66
2023/03/07 01:29:59;;;;;;;;;24.50;20.75;;;;;7.81;53.60;100070.84;5068735;28;45584;-65
2023/03/07 01:32:24;;;;;;;;;23.50;21.25;;;;;7.79;53.13;100079.53;5075093;27;45678;-66
2023/03/07 01:34:50;;;;;;;;;26.00;21.75;;;;;7.72;53.27;100065.59;5075214;28;45399;-66
2023/03/07 01:37:17;;;;;;;;;33.50;25.25;;;;;7.71;53.07;100057.78;5075207;28;45842;-65
2023/03/07 01:39:44;;;;;;;;;24.25;20.50;;;;;7.71;53.58;100060.38;5057252;28;45381;-66
2023/03/07 01:42:09;;;;;;;;;24.75;20.50;;;;;7.62;53.61;100038.66;5056643;28;47769;-65
2023/03/07 01:44:57;;;;;;;;;23.25;19.25;;;;;7.73;53.22;100048.22;5056496;28;45493;-68
2023/03/07 01:47:23;;;;;;;;;23.50;21.00;;;;;7.75;53.23;100056.91;5077429;27;45280;-67
2023/03/07 01:49:48;;;;;;;;;27.25;24.00;;;;;7.75;53.24;100049.09;5058496;28;45448;-67
2023/03/07 01:52:19;;;;;;;;;31.75;26.00;;;;;7.75;53.02;100054.31;5074530;28;46250;-66
2023/03/07 01:54:50;;;;;;;;;25.75;22.25;;;;;7.68;53.20;100040.38;5060679;28;45484;-68
2023/03/07 01:57:22;;;;;;;;;22.25;20.50;;;;;7.75;53.53;100041.28;5057613;28;45379;-66
2023/03/07 01:59:53;;;;;;;;;30.25;21.50;;;;;7.75;53.13;100036.06;5069382;28;45419;-65
2023/03/07 02:02:23;;;;;;;;;29.50;24.75;;;;;7.71;53.44;100029.09;5060608;28;45533;-66
2023/03/07 02:05:15;;;;;;;;;27.25;23.75;;;;;7.74;53.41;100036.94;5076106;28;45405;-67
2023/03/07 02:07:48;;;;;;;;;27.75;24.25;;;;;7.71;53.21;100026.50;5073075;27;45330;-65
2023/03/07 02:10:17;;;;;;;;;24.75;22.75;;;;;7.73;53.04;100022.16;5056719;28;45307;-64
2023/03/07 02:12:44;;;;;;;;;22.75;18.50;;;;;7.64;53.42;100008.25;5074372;27;45732;-66
2023/03/07 02:15:12;;;;;;;;;27.50;21.50;;;;;7.70;53.88;100006.53;5073211;27;45738;-66
2023/03/07 02:17:43;;;;;;;;;25.00;22.25;;;;;7.70;53.17;100011.72;5060458;28;45454;-68
2023/03/07 02:20:34;;;;;;;;;24.75;23.75;;;;;7.73;53.27;100012.59;5061111;28;45514;-70
2023/03/07 02:23:00;;;;;;;;;30.25;23.25;;;;;7.67;53.45;100002.16;5076106;28;45384;-65
2023/03/07 02:25:35;;;;;;;;;23.00;20.75;;;;;7.70;53.71;100006.53;5056474;28;45901;-68
2023/03/07 02:28:03;;;;;;;;;28.50;21.75;;;;;7.62;53.63;99999.56;5060206;28;45543;-66
2023/03/07 02:30:29;;;;;;;;;27.25;22.75;;;;;7.59;53.70;99993.44;5056211;28;45588;-66
2023/03/07 02:32:54;;;;;;;;;28.75;22.50;;;;;7.61;53.42;100002.16;5046961;28;46859;-65
2023/03/07 02:35:23;;;;;;;;;23.50;18.75;;;;;7.56;53.59;99986.50;5068620;28;45800;-67
2023/03/07 02:37:54;;;;;;;;;21.50;19.75;;;;;7.62;53.52;99989.13;5073319;28;45557;-66
2023/03/07 02:40:23;;;;;;;;;26.50;20.25;;;;;7.65;53.24;99993.47;5073248;28;45553;-68
2023/03/07 02:42:51;;;;;;;;;21.50;18.25;;;;;7.64;53.91;99994.34;5073010;28;46283;-66
2023/03/07 02:45:18;;;;;;;;;29.00;23.75;;;;;7.66;54.19;99989.97;5075545;27;45649;-65
2023/03/07 02:47:45;;;;;;;;;21.75;14.75;;;;;7.63;53.39;99982.16;5073905;27;45369;-65
2023/03/07 02:50:12;;;;;;;;;27.75;21.00;;;;;7.65;53.89;99981.31;5073070;28;45358;-66
2023/03/07 02:52:38;;;;;;;;;24.50;18.25;;;;;7.53;53.67;99962.19;5052161;28;46688;-66
2023/03/07 02:55:04;;;;;;;;;21.50;21.00;;;;;7.49;53.73;99960.44;5066764;28;45860;-66
2023/03/07 02:57:30;;;;;;;;;28.00;21.25;;;;;7.58;54.41;99973.47;5073884;27;45614;-67
2023/03/07 02:59:56;;;;;;;;;23.25;22.00;;;;;7.56;53.61;99972.59;5073425;27;45512;-67
2023/03/07 03:02:22;;;;;;;;;29.50;24.25;;;;;7.59;53.62;99970.00;5073909;28;46507;-66
2023/03/07 03:04:47;;;;;;;;;26.75;22.50;;;;;7.54;54.00;99956.09;5074297;28;45323;-67
2023/03/07 03:07:13;;;;;;;;;28.50;25.00;;;;;7.52;54.04;99947.41;5073577;27;45383;-68
2023/03/07 03:09:38;;;;;;;;;25.00;21.75;;;;;7.58;53.32;99957.84;5048336;28;45537;-67
2023/03/07 03:12:04;;;;;;;;;23.50;20.25;;;;;7.57;53.41;99951.78;5073181;28;45625;-68
2023/03/07 03:14:31;;;;;;;;;22.75;20.50;;;;;7.64;53.35;99961.34;5074835;28;45442;-64
2023/03/07 03:16:56;;;;;;;;;21.75;20.75;;;;;7.67;53.83;99960.47;5063012;28;45507;-67
2023/03/07 03:19:22;;;;;;;;;25.00;19.25;;;;;7.61;53.88;99935.25;5065526;28;45481;-67
2023/03/07 03:21:49;;;;;;;;;26.75;21.75;;;;;7.67;53.33;99947.44;5073360;28;46328;-65
2023/03/07 03:24:14;;;;;;;;;22.50;17.50;;;;;7.63;53.43;99941.34;5073383;27;45440;-66
2023/03/07 03:26:40;;;;;;;;;20.50;15.50;;;;;7.66;53.46;99950.88;5072492;28;45754;-69
2023/03/07 03:29:06;;;;;;;;;22.00;21.25;;;;;7.63;53.31;99943.94;5044283;28;45696;-69
2023/03/07 03:31:32;;;;;;;;;24.50;19.25;;;;;7.59;53.20;99937.00;5077474;28;45594;-66
2023/03/07 03:33:58;;;;;;;;;24.00;18.00;;;;;7.63;53.70;99938.72;5077207;27;45476;-65
2023/03/07 03:36:26;;;;;;;;;19.50;19.50;;;;;7.65;53.62;99939.59;5077874;27;45859;-66
2023/03/07 03:38:53;;;;;;;;;26.50;21.25;;;;;7.58;53.70;99935.25;5056017;28;45637;-68
2023/03/07 03:41:19;;;;;;;;;23.50;18.25;;;;;7.60;53.79;99935.25;5055449;28;46410;-69
2023/03/07 03:43:45;;;;;;;;;23.75;20.00;;;;;7.55;53.44;99927.44;5070835;28;45460;-67
2023/03/07 03:46:11;;;;;;;;;26.75;23.25;;;;;7.47;53.50;99918.72;5062627;28;45528;-66
2023/03/07 03:48:36;;;;;;;;;26.75;18.25;;;;;7.50;53.79;99921.34;5076446;28;45651;-66
2023/03/07 03:51:08;;;;;;;;;19.25;18.75;;;;;7.47;53.69;99907.44;5058321;28;47268;-66
2023/03/07 03:53:35;;;;;;;;;19.00;17.75;;;;;7.53;53.67;99918.75;5062379;27;45504;-65
2023/03/07 03:56:03;;;;;;;;;22.25;20.50;;;;;7.46;53.66;99917.00;5058949;28;45608;-66
2023/03/07 03:58:29;;;;;;;;;32.75;26.75;;;;;7.44;54.05;99900.50;5077337;27;45610;-67
2023/03/07 04:00:55;;;;;;;;;21.25;19.00;;;;;7.44;53.77;99909.16;5076939;28;46676;-66
2023/03/07 04:03:21;;;;;;;;;20.75;15.00;;;;;7.39;53.62;99897.00;5061055;28;45288;-67
2023/03/07 04:05:46;;;;;;;;;25.75;19.75;;;;;7.46;53.95;99903.97;5062730;27;45549;-65
2023/03/07 04:08:11;;;;;;;;;26.00;22.50;;;;;7.45;53.78;99902.25;5059637;28;45756;-67
2023/03/07 04:10:37;;;;;;;;;20.00;18.00;;;;;7.45;53.95;99902.25;5081187;28;45374;-68
2023/03/07 04:13:02;;;;;;;;;25.00;21.25;;;;;7.36;54.52;99899.63;5080968;27;45417;-67
2023/03/07 04:15:28;;;;;;;;;24.25;19.50;;;;;7.42;53.87;99900.47;5080944;27;45294;-68
2023/03/07 04:17:54;;;;;;;;;23.25;19.75;;;;;7.44;54.13;99905.69;5079124;28;45601;-67
2023/03/07 04:20:20;;;;;;;;;18.25;14.25;;;;;7.42;54.43;99900.47;5064513;28;45943;-68
2023/03/07 04:22:46;;;;;;;;;26.00;19.25;;;;;7.43;54.20;99902.22;5076444;27;45517;-66
2023/03/07 04:25:11;;;;;;;;;24.50;19.50;;;;;7.34;54.18;99885.72;5057917;28;45864;-65
2023/03/07 04:27:37;;;;;;;;;25.25;21.75;;;;;7.48;54.33;99902.25;5076437;28;45741;-68
2023/03/07 04:30:04;;;;;;;;;23.00;20.00;;;;;7.49;54.35;99903.97;5075837;28;46588;-67
2023/03/07 04:32:30;;;;;;;;;27.25;19.00;;;;;7.43;53.89;99893.56;5076157;28;45476;-65
2023/03/07 04:34:55;;;;;;;;;23.75;21.75;;;;;7.40;53.89;99885.72;5058330;28;45582;-69
2023/03/07 04:37:21;;;;;;;;;26.00;21.00;;;;;7.46;54.05;99900.50;5080173;27;45425;-68
2023/03/07 04:39:47;;;;;;;;;22.00;20.50;;;;;7.49;54.39;99906.56;5057675;28;46389;-67
2023/03/07 04:42:12;;;;;;;;;24.50;21.50;;;;;7.50;53.91;99902.22;5060006;28;45392;-66
2023/03/07 04:44:38;;;;;;;;;22.25;20.25;;;;;7.42;53.95;99891.78;5080820;28;45426;-66
2023/03/07 04:47:04;;;;;;;;;25.00;21.75;;;;;7.45;53.88;99899.63;5075840;28;45523;-67
2023/03/07 04:49:29;;;;;;;;;23.00;22.50;;;;;7.34;54.14;99889.19;5076459;27;46542;-66
2023/03/07 04:51:55;;;;;;;;;21.50;16.75;;;;;7.40;54.36;99899.63;5076335;28;45540;-67
2023/03/07 04:54:21;;;;;;;;;26.00;19.50;;;;;7.35;54.52;99890.91;5075945;28;45445;-65
2023/03/07 04:56:46;;;;;;;;;14.50;12.75;;;;;7.41;54.17;99884.88;5076202;27;45657;-66
2023/03/07 04:59:12;;;;;;;;;23.50;17.75;;;;;7.38;54.70;99883.13;5075082;27;45547;-66
2023/03/07 05:01:37;;;;;;;;;23.50;19.50;;;;;7.23;54.63;99859.66;5056804;28;45487;-66
2023/03/07 05:04:03;;;;;;;;;20.75;19.00;;;;;7.19;54.62;99855.31;5075795;27;45497;-65
2023/03/07 05:06:28;;;;;;;;;25.50;22.25;;;;;7.34;54.38;99880.50;5058602;28;45265;-65
2023/03/07 05:08:54;;;;;;;;;26.75;17.75;;;;;7.31;54.51;99868.34;5075831;28;45929;-66
2023/03/07 05:11:19;;;;;;;;;21.75;20.50;;;;;7.34;54.71;99885.72;5076081;27;45490;-65
2023/03/07 05:13:45;;;;;;;;;23.75;22.00;;;;;7.35;54.61;99877.88;5060076;28;45354;-65
2023/03/07 05:16:10;;;;;;;;;18.50;17.00;;;;;7.29;54.86;99867.47;5080677;28;45461;-66
2023/03/07 05:18:36;;;;;;;;;25.50;20.75;;;;;7.36;54.29;99881.38;5069217;28;46184;-66
2023/03/07 05:21:02;;;;;;;;;27.00;25.50;;;;;7.20;54.42;99867.47;5051236;28;45524;-65
2023/03/07 05:23:28;;;;;;;;;25.25;22.00;;;;;7.21;54.78;99869.19;5060712;28;45383;-65
2023/03/07 05:25:54;;;;;;;;;36.50;21.25;;;;;7.24;55.19;99879.63;5070989;27;45428;-65
2023/03/07 05:28:19;;;;;;;;;26.25;20.75;;;;;7.24;55.25;99879.63;5072845;28;45546;-65
2023/03/07 05:30:45;;;;;;;;;28.25;23.00;;;;;7.21;55.11;99863.97;5074268;28;45465;-65
2023/03/07 05:33:13;;;;;;;;;22.00;19.00;;;;;7.19;55.02;99860.53;5075214;28;45478;-67
2023/03/07 05:35:39;;;;;;;;;24.25;19.75;;;;;7.06;54.66;99828.38;5074890;27;45519;-67
2023/03/07 05:38:05;;;;;;;;;20.75;20.75;;;;;7.25;55.29;99862.25;5059686;28;47777;-65
2023/03/07 05:40:31;;;;;;;;;22.50;19.25;;;;;7.28;55.17;99870.06;5075332;28;45421;-66
2023/03/07 05:42:56;;;;;;;;;25.25;20.50;;;;;7.23;55.22;99870.06;5076044;28;45377;-65
2023/03/07 05:45:22;;;;;;;;;23.00;19.50;;;;;7.08;55.36;99841.41;5077815;27;45539;-66
2023/03/07 05:47:48;;;;;;;;;25.75;23.50;;;;;7.16;55.32;99860.50;5075607;27;46471;-65
2023/03/07 05:50:13;;;;;;;;;23.25;20.25;;;;;7.15;55.46;99857.03;5074949;28;45616;-65
2023/03/07 05:52:39;;;;;;;;;20.50;15.25;;;;;7.06;55.02;99841.38;5057790;28;45384;-65
2023/03/07 05:55:06;;;;;;;;;23.25;20.75;;;;;7.23;55.43;99857.91;5079862;28;45502;-65
2023/03/07 05:57:32;;;;;;;;;27.50;21.75;;;;;7.24;55.26;99861.41;5058527;28;46785;-65
2023/03/07 05:59:57;;;;;;;;;27.50;24.75;;;;;7.16;55.29;99845.72;5073937;27;45886;-65
2023/03/07 06:02:23;;;;;;;;;26.00;19.00;;;;;7.10;55.44;99837.06;5059527;28;45877;-67
2023/03/07 06:04:48;;;;;;;;;34.25;21.00;;;;;7.06;55.17;99845.72;5078835;27;45536;-66
2023/03/07 06:07:14;;;;;;;;;29.50;24.00;;;;;7.02;55.45;99837.03;5075100;28;46170;-66
2023/03/07 06:09:39;;;;;;;;;26.75;20.00;;;;;7.08;54.99;99841.41;5076659;28;45349;-67
2023/03/07 06:12:05;;;;;;;;;21.00;19.00;;;;;7.05;55.47;99833.56;5075836;28;45433;-65
2023/03/07 06:14:31;;;;;;;;;27.75;23.00;;;;;7.09;55.24;99843.13;5075068;28;45717;-65
2023/03/07 06:17:00;;;;;;;;;22.50;21.25;;;;;7.05;55.76;99846.59;5078338;28;46248;-65
2023/03/07 06:19:26;;;;;;;;;24.75;21.00;;;;;7.05;55.79;99844.88;5064572;28;45311;-65
2023/03/07 06:21:52;;;;;;;;;24.75;21.25;;;;;6.93;55.89;99822.28;5079145;28;45271;-66
2023/03/07 06:24:17;;;;;;;;;23.25;21.00;;;;;7.02;55.76;99857.88;5077720;28;45307;-65
2023/03/07 06:26:43;;;;;;;;;22.00;19.00;;;;;7.05;55.86;99846.59;5074332;28;46274;-66
2023/03/07 06:29:08;;;;;;;;;21.25;20.50;;;;;7.09;55.68;99846.59;5074210;28;45610;-66
2023/03/07 06:31:34;;;;;;;;;25.00;21.00;;;;;7.07;55.95;99852.66;5056271;27;45324;-66
2023/03/07 06:33:59;;;;;;;;;24.50;22.00;;;;;7.07;56.05;99840.53;5078274;28;45639;-66
2023/03/07 06:36:25;;;;;;;;;22.50;19.25;;;;;7.11;55.91;99851.81;5074586;28;45411;-66
2023/03/07 06:38:51;;;;;;;;;24.50;19.25;;;;;7.15;55.80;99845.75;5056337;28;45449;-67
2023/03/07 06:41:16;;;;;;;;;19.50;19.00;;;;;7.16;55.66;99835.31;5075201;28;45426;-66
2023/03/07 06:43:42;;;;;;;;;22.50;18.25;;;;;7.26;55.40;99843.16;5074389;28;45406;-66
2023/03/07 06:46:07;;;;;;;;;23.50;19.00;;;;;7.13;54.99;99824.91;5059416;28;45754;-66
2023/03/07 06:48:33;;;;;;;;;19.50;16.25;;;;;7.29;55.27;99844.03;5074559;28;45484;-68
2023/03/07 06:51:05;;;;;;;;;24.00;21.75;;;;;7.29;55.07;99835.38;5074823;28;45481;-66
2023/03/07 06:53:30;;;;;;;;;24.00;21.50;;;;;7.28;55.22;99842.28;5074819;28;45401;-65
2023/03/07 06:55:56;;;;;;;;;25.00;18.00;;;;;7.24;55.42;99837.97;5076477;28;45831;-67
2023/03/07 06:58:21;;;;;;;;;20.00;18.00;;;;;7.29;55.64;99840.56;5074007;28;45419;-66
2023/03/07 07:00:47;;;;;;;;;25.25;19.25;;;;;7.33;55.37;99844.91;5055634;28;45442;-66
2023/03/07 07:03:18;;;;;;;;;21.00;18.00;;;;;7.36;54.88;99842.31;5073999;28;45421;-67
2023/03/07 07:05:44;;;;;;;;;23.50;18.50;;;;;7.33;55.36;99837.97;5055085;28;45771;-66
2023/03/07 07:08:09;;;;;;;;;26.75;21.25;;;;;7.29;55.62;99838.81;5075489;28;45304;-66
2023/03/07 07:10:35;;;;;;;;;22.50;21.25;;;;;7.31;55.48;99841.41;5078054;28;45296;-66
2023/03/07 07:13:01;;;;;;;;;19.25;15.50;;;;;7.33;55.47;99844.91;5078445;28;45246;-66
2023/03/07 07:15:27;;;;;;;;;22.75;21.75;;;;;7.26;55.33;99824.91;5073580;28;45429;-68
2023/03/07 07:17:53;;;;;;;;;26.25;20.00;;;;;7.25;55.49;99833.63;5072052;27;45508;-68
2023/03/07 07:20:18;;;;;;;;;30.25;23.50;;;;;7.19;55.26;99834.50;5063316;28;45329;-67
2023/03/07 07:22:44;;;;;;;;;25.00;20.25;;;;;7.26;55.27;99845.75;5074088;27;45394;-68
2023/03/07 07:25:10;;;;;;;;;26.25;19.75;;;;;7.28;55.30;99844.88;5071004;28;46856;-70
2023/03/07 07:27:36;;;;;;;;;29.00;22.25;;;;;7.28;55.73;99855.31;5076610;28;45951;-65
2023/03/07 07:30:03;;;;;;;;;24.75;20.75;;;;;7.32;55.02;99850.97;5076020;28;45542;-66
2023/03/07 07:32:29;;;;;;;;;22.75;19.25;;;;;7.26;54.96;99844.03;5074263;28;45691;-65
2023/03/07 07:34:55;;;;;;;;;28.00;22.50;;;;;7.01;55.20;99806.66;5074997;28;46859;-67
2023/03/07 07:37:21;;;;;;;;;22.75;19.50;;;;;7.31;55.31;99850.13;5075891;28;45389;-67
2023/03/07 07:39:48;;;;;;;;;19.25;18.50;;;;;7.25;55.54;99833.63;5074002;27;45749;-67
2023/03/07 07:42:14;;;;;;;;;23.75;18.50;;;;;7.31;55.14;99847.53;5076942;28;45488;-64
2023/03/07 07:44:40;;;;;;;;;21.25;15.75;;;;;7.40;55.17;99855.34;5072157;28;46969;-67
2023/03/07 07:47:05;;;;;;;;;21.00;18.00;;;;;7.39;55.27;99832.75;5072928;28;45434;-67
2023/03/07 07:49:31;;;;;;;;;24.25;20.50;;;;;7.47;54.68;99834.47;5073503;28;45560;-66
2023/03/07 07:51:57;;;;;;;;;20.50;17.75;;;;;7.47;54.71;99845.78;5074281;28;45416;-67
2023/03/07 07:54:22;;;;;;;;;29.50;21.75;;;;;7.48;54.89;99846.66;5077670;28;45362;-66
2023/03/07 07:56:48;;;;;;;;;25.25;21.50;;;;;7.37;55.17;99839.69;5063174;28;45740;-67
2023/03/07 07:59:13;;;;;;;;;26.75;22.50;;;;;7.42;55.15;99848.38;5054349;28;45687;-66
2023/03/07 08:01:39;;;;;;;;;21.00;20.50;;;;;7.47;55.03;99845.78;5077569;28;45633;-68
2023/03/07 08:04:04;;;;;;;;;27.00;21.00;;;;;7.39;54.48;99824.94;5063623;28;45496;-67
2023/03/07 08:06:30;;;;;;;;;21.00;18.00;;;;;7.53;54.63;99847.53;5076575;28;45232;-67
2023/03/07 08:08:56;;;;;;;;;22.75;18.75;;;;;7.54;54.94;99841.44;5077567;27;45375;-65
2023/03/07 08:11:23;;;;;;;;;21.00;19.50;;;;;7.59;54.67;99851.00;5077907;27;45589;-67
2023/03/07 08:13:49;;;;;;;;;20.50;18.50;;;;;7.61;54.35;99859.66;5077362;28;45457;-66
2023/03/07 08:16:17;;;;;;;;;22.25;18.50;;;;;7.58;54.36;99845.78;5077168;28;45445;-65
2023/03/07 08:18:49;;;;;;;;;23.75;19.00;;;;;7.58;54.16;99848.41;5049517;28;45516;-66
2023/03/07 08:21:14;;;;;;;;;22.50;18.50;;;;;7.56;54.20;99832.75;5066791;28;45452;-68
2023/03/07 08:23:40;;;;;;;;;24.75;21.00;;;;;7.69;54.62;99861.41;5075289;27;45517;-67
2023/03/07 08:26:08;;;;;;;;;18.50;13.50;;;;;7.75;54.28;99877.06;5059189;28;45426;-66
2023/03/07 08:28:35;;;;;;;;;20.00;17.00;;;;;7.84;53.80;99880.53;5076757;28;45434;-65
2023/03/07 08:31:13;;;;;;;;;18.75;16.25;;;;;7.75;53.92;99854.47;5073327;28;45509;-66
2023/03/07 08:33:39;;;;;;;;;19.25;12.50;;;;;7.89;53.70;99874.44;5072350;28;46214;-68
2023/03/07 08:36:06;;;;;;;;;21.00;19.50;;;;;7.96;53.82;99874.44;5074841;27;45565;-68
2023/03/07 08:38:32;;;;;;;;;20.75;19.25;;;;;7.89;53.86;99858.81;5060747;27;45485;-65
2023/03/07 08:41:05;;;;;;;;;23.25;19.00;;;;;7.92;53.73;99874.44;5071392;28;45679;-67
2023/03/07 08:43:33;;;;;;;;;34.75;23.75;;;;;7.90;53.48;99861.41;5076016;27;45739;-67
2023/03/07 08:45:59;;;;;;;;;24.25;20.00;;;;;7.87;53.96;99861.41;5045628;28;45384;-68
2023/03/07 08:48:25;;;;;;;;;23.50;20.50;;;;;7.78;54.15;99853.59;5061126;28;45504;-68
2023/03/07 08:50:52;;;;;;;;;18.00;14.75;;;;;7.71;54.12;99834.50;5079078;27;45397;-66
2023/03/07 08:53:18;;;;;;;;;24.25;22.50;;;;;7.83;54.09;99852.72;5075576;27;46140;-66
2023/03/07 08:55:43;;;;;;;;;27.75;19.75;;;;;7.81;53.56;99841.44;5074316;27;45459;-66
2023/03/07 08:58:09;;;;;;;;;24.00;22.00;;;;;7.90;53.75;99844.88;5076081;28;45784;-68
2023/03/07 09:00:36;;;;;;;;;25.25;18.50;;;;;7.91;53.57;99844.88;5076158;28;45442;-68
2023/03/07 09:03:06;;;;;;;;;18.00;18.00;;;;;7.91;53.57;99844.03;5057706;28;48219;-68
2023/03/07 09:05:35;;;;;;;;;23.75;17.50;;;;;7.93;53.91;99844.91;5074987;28;45465;-66
2023/03/07 09:08:00;;;;;;;;;18.75;14.50;;;;;8.01;53.49;99848.34;5061811;27;45416;-65
2023/03/07 09:10:26;;;;;;;;;23.25;17.50;;;;;8.02;54.54;99839.63;5076322;28;45374;-68
2023/03/07 09:12:52;;;;;;;;;25.00;19.00;;;;;8.17;55.21;99857.03;5075623;28;46024;-66
2023/03/07 09:15:17;;;;;;;;;20.00;18.00;;;;;8.17;53.79;99844.84;5075867;27;45461;-70
2023/03/07 09:17:43;;;;;;;;;18.75;15.50;;;;;8.27;53.79;99861.34;5075548;28;45395;-68
2023/03/07 09:20:10;;;;;;;;;22.00;16.75;;;;;8.29;53.39;99851.75;5049743;28;45928;-68
2023/03/07 09:22:36;;;;;;;;;21.75;18.50;;;;;8.25;53.04;99842.19;5056721;28;47630;-68
2023/03/07 09:25:02;;;;;;;;;21.75;19.75;;;;;8.14;53.22;99824.00;5076101;28;45806;-68
2023/03/07 09:27:31;;;;;;;;;19.00;17.00;;;;;8.26;52.99;99852.66;5078642;27;45442;-67
2023/03/07 09:29:56;;;;;;;;;20.50;15.25;;;;;8.25;53.04;99835.25;5062463;28;45606;-68
2023/03/07 09:32:22;;;;;;;;;25.50;16.75;;;;;8.29;52.87;99833.50;5077510;28;46266;-67
2023/03/07 09:34:47;;;;;;;;;22.75;21.75;;;;;8.27;53.10;99824.81;5075590;28;45413;-66
2023/03/07 09:37:13;;;;;;;;;21.00;18.75;;;;;8.32;53.20;99833.47;5060728;28;45475;-67
2023/03/07 09:39:39;;;;;;;;;23.75;19.50;;;;;8.31;53.04;99825.69;5075385;28;45542;-68
2023/03/07 09:42:27;;;;;;;;;18.25;15.25;;;;;8.47;52.96;99841.31;5071275;28;46461;-66
2023/03/07 09:45:11;;;;;;;;;22.75;17.50;;;;;8.62;52.96;99831.69;5069425;27;45403;-67
2023/03/07 09:47:42;;;;;;;;;24.25;17.25;;;;;8.70;52.00;99828.13;5077953;27;45497;-66
2023/03/07 09:50:21;;;;;;;;;27.75;25.50;;;;;8.68;52.39;99810.75;5075387;28;45563;-66
2023/03/07 09:52:47;;;;;;;;;25.25;23.00;;;;;8.79;51.96;99823.75;5074918;28;46147;-65
2023/03/07 09:55:18;;;;;;;;;27.00;24.75;;;;;8.81;51.98;99815.03;5074979;28;45387;-65
2023/03/07 09:57:51;;;;;;;;;23.00;20.25;;;;;8.77;52.20;99815.06;5074942;28;45363;-66
2023/03/07 10:00:32;;;;;;;;;23.75;21.00;;;;;8.85;51.62;99818.47;5074505;28;45366;-66
2023/03/07 10:03:35;;;;;;;;;25.25;21.50;;;;;8.99;51.75;99818.41;5075141;28;46975;-67
2023/03/07 10:06:18;;;;;;;;;23.75;18.75;;;;;9.05;59.91;99802.72;5054483;28;45688;-67
2023/03/07 10:08:44;;;;;;;;;24.00;21.25;;;;;9.33;53.26;99806.84;5054731;28;45371;-66
2023/03/07 10:11:27;;;;;;;;;16.25;15.25;;;;;9.36;51.71;99807.72;5057281;28;45871;-67
2023/03/07 10:14:31;;;;;;;;;23.50;17.50;;;;;9.41;51.38;99800.69;5047059;28;46679;-68
2023/03/07 10:17:34;;;;;;;;;21.25;20.50;;;;;9.43;51.37;99778.91;5052090;28;45406;-68
2023/03/07 10:20:46;;;;;;;;;22.00;18.25;;;;;9.63;50.39;99789.16;5053991;28;45719;-67
2023/03/07 10:23:24;;;;;;;;;22.50;18.75;;;;;9.74;50.44;99787.31;5074486;28;45596;-69
2023/03/07 10:25:55;;;;;;;;;28.25;22.75;;;;;9.78;49.89;99782.94;5077543;27;46987;-65
2023/03/07 10:28:25;;;;;;;;;22.75;16.75;;;;;9.76;49.37;99792.53;5074981;28;45357;-66
2023/03/07 10:30:57;;;;;;;;;21.00;15.75;;;;;9.74;49.15;99774.25;5074393;28;45743;-66
2023/03/07 10:33:23;;;;;;;;;19.50;14.25;;;;;10.00;50.35;99790.56;5074245;27;45552;-66
2023/03/07 10:36:07;;;;;;;;;15.25;14.50;;;;;10.16;48.76;99764.19;5056156;28;47964;-66
2023/03/07 10:38:54;;;;;;;;;23.50;16.75;;;;;10.47;48.32;99782.19;5073974;28;45568;-65
2023/03/07 10:41:21;;;;;;;;;19.25;16.00;;;;;10.56;47.95;99768.97;5074069;27;45439;-66
2023/03/07 10:43:49;;;;;;;;;19.25;18.00;;;;;10.77;47.16;99783.53;5074157;28;45503;-67
2023/03/07 10:46:16;;;;;;;;;18.75;16.00;;;;;10.88;46.42;99774.66;5074407;28;46108;-65
2023/03/07 10:48:47;;;;;;;;;30.00;17.75;;;;;11.02;46.08;99770.06;5073906;28;45327;-66
2023/03/07 10:51:25;;;;;;;;;25.25;18.75;;;;;11.09;46.21;99770.84;5074384;28;45326;-67
2023/03/07 10:53:51;;;;;;;;;11.00;10.50;;;;;10.78;45.99;99711.91;5074219;28;45873;-66
2023/03/07 10:56:18;;;;;;;;;19.00;16.75;;;;;11.24;45.33;99757.47;5056347;27;45520;-66
2023/03/07 10:59:04;;;;;;;;;18.50;17.00;;;;;11.25;44.75;99760.09;5048109;28;45398;-66
2023/03/07 11:01:34;;;;;;;;;18.50;14.00;;;;;11.33;45.26;99769.56;5054021;28;45955;-66
2023/03/07 11:04:19;;;;;;;;;18.00;15.75;;;;;11.32;44.67;99763.47;5063532;28;45999;-67
2023/03/07 11:07:00;;;;;;;;;16.00;12.00;;;;;11.35;44.83;99749.44;5075126;27;46973;-66
2023/03/07 11:09:30;;;;;;;;;20.00;15.00;;;;;11.27;44.27;99753.94;5053558;28;45844;-66
2023/03/07 11:12:04;;;;;;;;;20.75;14.50;;;;;11.21;44.20;99762.78;5061831;28;45915;-64
2023/03/07 11:14:51;;;;;;;;;12.50;10.50;;;;;11.27;48.82;99757.44;5057371;28;45660;-66
2023/03/07 11:17:40;;;;;;;;;16.25;11.50;;;;;11.45;47.96;99754.50;5060892;28;46610;-65
2023/03/07 11:20:26;;;;;;;;;13.00;11.25;;;;;11.54;45.72;99760.47;5051695;28;45618;-66
2023/03/07 11:23:13;;;;;;;;;13.75;11.75;;;;;11.59;46.73;99758.63;5074037;28;45375;-66
2023/03/07 11:25:39;;;;;;;;;11.50;11.00;;;;;11.68;45.78;99750.63;5071353;28;45481;-65
2023/03/07 11:28:23;;;;;;;;;22.25;11.50;;;;;11.61;44.27;99746.38;5070850;28;46122;-66